Time;durP1;ratioP1;P1;durP2;ratioP2;P2;SDS_P1;SDS_P2;PMS_P1;PMS_P2;Temp;Humidity;BMP_temperature;BMP_pressure;BME280_temperature;BME280_humidity;BME280_pressure;Samples;Min_cycle;Max_cycle;Signal;HPM_P1;HPM_P2
2022/03/16 00:00:30;;;;;;;2.40;2.20;;;;;;;;;;5096834;28;20203;-51
2022/03/16 00:02:57;;;;;;;2.20;2.00;;;;;;;;;;5095470;28;20286;-51
2022/03/16 00:05:26;;;;;;;2.30;2.10;;;;;;;;;;5096968;28;20693;-51
2022/03/16 00:07:54;;;;;;;2.42;2.22;;;;;;;;;;5096046;28;20204;-51
2022/03/16 00:10:22;;;;;;;2.03;1.83;;;;;;;;;;5096968;28;20218;-51
2022/03/16 00:12:49;;;;;;;2.38;2.17;;;;;;;;;;5097100;28;20548;-52
2022/03/16 00:15:16;;;;;;;2.20;2.00;;;;;;;;;;5095769;28;20192;-51
2022/03/16 00:17:46;;;;;;;2.20;2.05;;;;;;;;;;5096309;28;20287;-51
2022/03/16 00:20:13;;;;;;;1.92;1.73;;;;;;;;;;5096688;28;20218;-51
2022/03/16 00:22:41;;;;;;;2.30;2.13;;;;;;;;;;5097089;28;20298;-51
2022/03/16 00:25:10;;;;;;;2.28;2.08;;;;;;;;;;5096466;28;20228;-51
2022/03/16 00:27:38;;;;;;;2.08;1.92;;;;;;;;;;5096507;28;20293;-51
2022/03/16 00:30:05;;;;;;;2.28;2.08;;;;;;;;;;5095661;28;20200;-51
2022/03/16 00:32:33;;;;;;;2.33;2.13;;;;;;;;;;5096009;28;20214;-51
2022/03/16 00:35:02;;;;;;;2.20;2.00;;;;;;;;;;5096307;28;20199;-51
2022/03/16 00:37:32;;;;;;;2.03;1.88;;;;;;;;;;5096697;28;20212;-51
2022/03/16 00:40:00;;;;;;;1.92;1.83;;;;;;;;;;5096253;28;20654;-54
2022/03/16 00:42:27;;;;;;;2.08;1.92;;;;;;;;;;5095742;28;20590;-52
2022/03/16 00:44:55;;;;;;;1.85;1.67;;;;;;;;;;5096142;28;20203;-51
2022/03/16 00:47:22;;;;;;;2.30;2.10;;;;;;;;;;5095897;28;20231;-51
2022/03/16 00:49:50;;;;;;;2.08;1.98;;;;;;;;;;5096342;28;20211;-51
2022/03/16 00:52:19;;;;;;;1.80;1.70;;;;;;;;;;5096627;28;20203;-51
2022/03/16 00:54:46;;;;;;;1.90;1.80;;;;;;;;;;5096190;28;20203;-51
2022/03/16 00:57:14;;;;;;;2.28;2.08;;;;;;;;;;5096242;28;20195;-52
2022/03/16 00:59:41;;;;;;;1.80;1.70;;;;;;;;;;5096770;28;20683;-53
2022/03/16 01:02:09;;;;;;;1.90;1.80;;;;;;;;;;5096533;28;20210;-51
2022/03/16 01:04:36;;;;;;;2.20;2.00;;;;;;;;;;5095204;28;20298;-51
2022/03/16 01:07:04;;;;;;;2.25;1.90;;;;;;;;;;5096011;28;20222;-51
2022/03/16 01:09:33;;;;;;;2.10;1.90;;;;;;;;;;5096385;28;20306;-53
2022/03/16 01:12:00;;;;;;;1.75;1.65;;;;;;;;;;5096266;28;20223;-53
2022/03/16 01:14:28;;;;;;;2.10;2.00;;;;;;;;;;5096375;28;20204;-53
2022/03/16 01:16:55;;;;;;;2.10;1.90;;;;;;;;;;5096393;28;20198;-53
2022/03/16 01:19:22;;;;;;;2.20;2.03;;;;;;;;;;5096255;28;20298;-53
2022/03/16 01:21:50;;;;;;;1.80;1.70;;;;;;;;;;5095717;28;20287;-53
2022/03/16 01:24:20;;;;;;;1.92;1.80;;;;;;;;;;5096589;28;20290;-53
2022/03/16 01:26:49;;;;;;;2.20;1.90;;;;;;;;;;5096188;28;20231;-52
2022/03/16 01:29:16;;;;;;;2.15;1.95;;;;;;;;;;5096223;28;20306;-61
2022/03/16 01:31:44;;;;;;;2.05;1.95;;;;;;;;;;5095775;28;20630;-54
2022/03/16 01:34:11;;;;;;;1.90;1.80;;;;;;;;;;5095512;28;20294;-54
2022/03/16 01:36:39;;;;;;;1.80;1.70;;;;;;;;;;5096192;28;20646;-53
2022/03/16 01:39:06;;;;;;;1.88;1.77;;;;;;;;;;5096405;28;20224;-53
2022/03/16 01:41:35;;;;;;;1.80;1.70;;;;;;;;;;5095925;28;20299;-53
2022/03/16 01:44:05;;;;;;;2.00;1.90;;;;;;;;;;5095325;28;20378;-53
2022/03/16 01:46:32;;;;;;;1.90;1.80;;;;;;;;;;5095323;28;20239;-53
2022/03/16 01:49:00;;;;;;;1.67;1.58;;;;;;;;;;5095958;28;20315;-53
2022/03/16 01:51:27;;;;;;;1.98;1.88;;;;;;;;;;5095653;28;20480;-53
2022/03/16 01:53:55;;;;;;;1.80;1.70;;;;;;;;;;5095887;28;20298;-53
2022/03/16 01:56:22;;;;;;;1.80;1.70;;;;;;;;;;5099566;28;20282;-53
2022/03/16 01:58:50;;;;;;;1.90;1.80;;;;;;;;;;5100059;28;20481;-53
2022/03/16 02:01:19;;;;;;;1.60;1.50;;;;;;;;;;5099257;28;20218;-53
2022/03/16 02:03:46;;;;;;;1.85;1.75;;;;;;;;;;5099571;28;20238;-53
2022/03/16 02:06:14;;;;;;;1.70;1.60;;;;;;;;;;5099168;28;20314;-53
2022/03/16 02:08:42;;;;;;;1.90;1.80;;;;;;;;;;5099692;28;20270;-53
2022/03/16 02:11:09;;;;;;;1.70;1.60;;;;;;;;;;5099370;28;20303;-53
2022/03/16 02:13:36;;;;;;;1.90;1.80;;;;;;;;;;5099556;28;20210;-53
2022/03/16 02:16:04;;;;;;;2.00;1.90;;;;;;;;;;5098998;28;20290;-53
2022/03/16 02:18:33;;;;;;;1.90;1.80;;;;;;;;;;5099450;28;20302;-53
2022/03/16 02:21:02;;;;;;;2.00;1.80;;;;;;;;;;5099395;28;20204;-53
2022/03/16 02:23:31;;;;;;;1.70;1.60;;;;;;;;;;5098681;28;20298;-53
2022/03/16 02:25:59;;;;;;;1.95;1.80;;;;;;;;;;5098664;28;20227;-53
2022/03/16 02:28:27;;;;;;;2.05;1.95;;;;;;;;;;5078634;28;20523;-53
2022/03/16 02:30:54;;;;;;;1.92;1.83;;;;;;;;;;5078627;28;20215;-53
2022/03/16 02:33:22;;;;;;;1.95;1.85;;;;;;;;;;5078922;28;20554;-53
2022/03/16 02:35:50;;;;;;;1.98;1.88;;;;;;;;;;5078950;28;20295;-53
2022/03/16 02:38:18;;;;;;;1.90;1.80;;;;;;;;;;5097095;28;20235;-53
2022/03/16 02:40:48;;;;;;;1.85;1.75;;;;;;;;;;5099227;28;20199;-53
2022/03/16 02:43:15;;;;;;;1.90;1.80;;;;;;;;;;5098261;28;20360;-53
2022/03/16 02:45:43;;;;;;;1.90;1.80;;;;;;;;;;5097874;28;20266;-53
2022/03/16 02:48:11;;;;;;;1.95;1.85;;;;;;;;;;5098339;28;20218;-53
2022/03/16 02:50:38;;;;;;;2.00;1.90;;;;;;;;;;5098620;28;20204;-53
2022/03/16 02:53:06;;;;;;;1.70;1.60;;;;;;;;;;5098360;28;20480;-53
2022/03/16 02:55:36;;;;;;;1.88;1.77;;;;;;;;;;5098171;28;20207;-53
2022/03/16 02:58:05;;;;;;;2.38;2.17;;;;;;;;;;5098476;28;20199;-53
2022/03/16 03:00:33;;;;;;;2.03;1.92;;;;;;;;;;5098554;28;20200;-53
2022/03/16 03:03:00;;;;;;;1.90;1.80;;;;;;;;;;5098176;28;20306;-53
2022/03/16 03:05:28;;;;;;;1.98;1.88;;;;;;;;;;5097235;28;20229;-53
2022/03/16 03:07:55;;;;;;;1.92;1.83;;;;;;;;;;5098175;28;20263;-53
2022/03/16 03:10:23;;;;;;;2.00;1.90;;;;;;;;;;5098477;28;20306;-53
2022/03/16 03:12:50;;;;;;;1.83;1.73;;;;;;;;;;5098191;28;20538;-53
2022/03/16 03:15:20;;;;;;;1.90;1.80;;;;;;;;;;5097805;28;20210;-53
2022/03/16 03:17:47;;;;;;;1.95;1.85;;;;;;;;;;5098291;28;20290;-53
2022/03/16 03:20:15;;;;;;;1.80;1.70;;;;;;;;;;5098356;28;20309;-53
2022/03/16 03:22:42;;;;;;;2.15;1.90;;;;;;;;;;5098262;28;20199;-53
2022/03/16 03:25:11;;;;;;;2.15;2.00;;;;;;;;;;5097760;28;20200;-53
2022/03/16 03:27:39;;;;;;;1.90;1.80;;;;;;;;;;5098080;28;20219;-53
2022/03/16 03:30:07;;;;;;;2.00;1.90;;;;;;;;;;5097946;28;20298;-53
2022/03/16 03:32:36;;;;;;;1.92;1.83;;;;;;;;;;5097751;28;20290;-53
2022/03/16 03:35:03;;;;;;;2.35;2.15;;;;;;;;;;5097128;28;20313;-53
2022/03/16 03:37:31;;;;;;;2.03;1.92;;;;;;;;;;5097434;28;20206;-53
2022/03/16 03:39:59;;;;;;;2.40;2.28;;;;;;;;;;5097971;28;20489;-53
2022/03/16 03:42:26;;;;;;;1.95;1.85;;;;;;;;;;5097926;28;20298;-53
2022/03/16 03:44:54;;;;;;;2.00;1.90;;;;;;;;;;5097075;28;20207;-53
2022/03/16 03:47:21;;;;;;;1.92;1.83;;;;;;;;;;5097262;28;20235;-53
2022/03/16 03:49:50;;;;;;;2.08;1.90;;;;;;;;;;5097148;28;20286;-53
2022/03/16 03:52:17;;;;;;;2.10;2.00;;;;;;;;;;5097049;28;20421;-53
2022/03/16 03:54:45;;;;;;;1.98;1.88;;;;;;;;;;5096918;28;20291;-53
2022/03/16 03:57:14;;;;;;;2.00;1.90;;;;;;;;;;5097016;28;20199;-53
2022/03/16 03:59:41;;;;;;;2.15;2.00;;;;;;;;;;5097169;28;20298;-53
2022/03/16 04:02:08;;;;;;;1.98;1.88;;;;;;;;;;5097003;28;20300;-53
2022/03/16 04:04:36;;;;;;;1.88;1.77;;;;;;;;;;5095994;28;20201;-53
2022/03/16 04:07:05;;;;;;;2.00;1.90;;;;;;;;;;5096898;28;20230;-53
2022/03/16 04:09:33;;;;;;;2.25;2.05;;;;;;;;;;5097434;28;20203;-53
2022/03/16 04:12:00;;;;;;;2.13;2.03;;;;;;;;;;5097333;28;20549;-53
2022/03/16 04:14:28;;;;;;;2.08;1.98;;;;;;;;;;5096498;28;20218;-53
2022/03/16 04:16:55;;;;;;;2.17;2.08;;;;;;;;;;5095818;28;20208;-53
2022/03/16 04:19:23;;;;;;;2.13;2.03;;;;;;;;;;5096590;28;20711;-53
2022/03/16 04:21:50;;;;;;;2.00;1.90;;;;;;;;;;5096915;28;20287;-53
2022/03/16 04:24:19;;;;;;;1.95;1.85;;;;;;;;;;5096351;28;20199;-53
2022/03/16 04:26:47;;;;;;;1.70;1.60;;;;;;;;;;5095734;28;20313;-53
2022/03/16 04:29:14;;;;;;;2.42;2.22;;;;;;;;;;5096820;28;20202;-53
2022/03/16 04:31:41;;;;;;;2.30;2.10;;;;;;;;;;5096664;28;20286;-53
2022/03/16 04:34:09;;;;;;;2.05;1.95;;;;;;;;;;5096373;28;20298;-53
2022/03/16 04:36:36;;;;;;;2.35;1.95;;;;;;;;;;5096288;28;20207;-53
2022/03/16 04:39:04;;;;;;;2.00;1.90;;;;;;;;;;5095857;28;20609;-53
2022/03/16 04:41:33;;;;;;;2.47;2.38;;;;;;;;;;5096667;28;20306;-53
2022/03/16 04:44:00;;;;;;;1.80;1.70;;;;;;;;;;5095970;28;20287;-53
2022/03/16 04:46:28;;;;;;;2.20;2.00;;;;;;;;;;5095668;28;20243;-53
2022/03/16 04:48:55;;;;;;;1.98;1.88;;;;;;;;;;5095972;28;20592;-53
2022/03/16 04:51:22;;;;;;;2.40;2.20;;;;;;;;;;5096286;28;20500;-53
2022/03/16 04:53:50;;;;;;;2.00;1.90;;;;;;;;;;5095704;28;20298;-53
2022/03/16 04:56:17;;;;;;;2.00;1.90;;;;;;;;;;5095185;28;20203;-53
2022/03/16 04:58:46;;;;;;;2.08;1.98;;;;;;;;;;5095383;28;20306;-53
2022/03/16 05:01:13;;;;;;;1.90;1.80;;;;;;;;;;5094478;28;20204;-53
2022/03/16 05:03:41;;;;;;;2.58;2.38;;;;;;;;;;5095335;28;20204;-53
2022/03/16 05:06:08;;;;;;;1.98;1.88;;;;;;;;;;5093311;28;20267;-53
2022/03/16 05:08:37;;;;;;;2.35;2.15;;;;;;;;;;5094955;28;20318;-53
2022/03/16 05:11:05;;;;;;;2.05;1.95;;;;;;;;;;5095780;28;20249;-53
2022/03/16 05:13:32;;;;;;;2.30;2.10;;;;;;;;;;5095119;28;20369;-53
2022/03/16 05:16:02;;;;;;;2.35;2.15;;;;;;;;;;5094593;28;20488;-53
2022/03/16 05:18:29;;;;;;;2.45;2.30;;;;;;;;;;5094904;28;20249;-53
2022/03/16 05:20:57;;;;;;;2.38;2.17;;;;;;;;;;5095217;28;20214;-53
2022/03/16 05:23:24;;;;;;;2.00;1.90;;;;;;;;;;5094141;28;20299;-53
2022/03/16 05:25:51;;;;;;;2.63;2.25;;;;;;;;;;5094136;28;20222;-53
2022/03/16 05:28:19;;;;;;;2.20;2.10;;;;;;;;;;5094983;28;20224;-53
2022/03/16 05:30:46;;;;;;;2.40;2.20;;;;;;;;;;5098231;28;20674;-53
2022/03/16 05:33:15;;;;;;;2.30;2.15;;;;;;;;;;5098604;28;20294;-53
2022/03/16 05:35:43;;;;;;;2.13;2.03;;;;;;;;;;5098374;28;20300;-53
2022/03/16 05:38:12;;;;;;;2.40;2.20;;;;;;;;;;5097923;28;20206;-53
2022/03/16 05:40:40;;;;;;;2.45;2.25;;;;;;;;;;5098282;28;20496;-53
2022/03/16 05:43:08;;;;;;;2.45;2.25;;;;;;;;;;5097536;28;20199;-53
2022/03/16 05:45:36;;;;;;;2.00;1.90;;;;;;;;;;5097253;28;20722;-53
2022/03/16 05:48:03;;;;;;;2.38;2.28;;;;;;;;;;5096962;28;20610;-53
2022/03/16 05:50:32;;;;;;;2.22;2.05;;;;;;;;;;5097589;28;20299;-53
2022/03/16 05:53:00;;;;;;;2.40;2.20;;;;;;;;;;5095848;28;20465;-53
2022/03/16 05:55:27;;;;;;;2.63;2.42;;;;;;;;;;5096369;28;20211;-53
2022/03/16 05:57:55;;;;;;;2.40;2.20;;;;;;;;;;5096273;28;20199;-53
2022/03/16 06:00:23;;;;;;;2.70;2.50;;;;;;;;;;5095332;28;20208;-53
2022/03/16 06:02:51;;;;;;;2.60;2.40;;;;;;;;;;5095034;28;20610;-53
2022/03/16 06:05:19;;;;;;;2.60;2.40;;;;;;;;;;5094970;28;20200;-53
2022/03/16 06:07:47;;;;;;;2.53;2.33;;;;;;;;;;5095815;28;20226;-53
2022/03/16 06:10:17;;;;;;;2.45;2.28;;;;;;;;;;5096652;28;20299;-53
2022/03/16 06:12:51;;;;;;;2.60;2.40;;;;;;;;;;5094767;28;20196;-53
2022/03/16 06:15:19;;;;;;;2.55;2.35;;;;;;;;;;5093991;28;20606;-53
2022/03/16 06:17:46;;;;;;;2.42;2.22;;;;;;;;;;5093670;28;20196;-53
2022/03/16 06:20:14;;;;;;;2.60;2.40;;;;;;;;;;5095228;28;20582;-53
2022/03/16 06:22:42;;;;;;;2.53;2.33;;;;;;;;;;5094418;28;20196;-53
2022/03/16 06:25:11;;;;;;;2.78;2.58;;;;;;;;;;5094745;28;20497;-53
2022/03/16 06:27:39;;;;;;;2.75;2.55;;;;;;;;;;5094986;28;20755;-54
2022/03/16 06:30:07;;;;;;;2.70;2.50;;;;;;;;;;5094886;28;20294;-53
2022/03/16 06:32:34;;;;;;;2.45;2.25;;;;;;;;;;5095431;28;20203;-53
2022/03/16 06:35:02;;;;;;;3.00;2.70;;;;;;;;;;5095317;28;20203;-53
2022/03/16 06:37:30;;;;;;;2.70;2.50;;;;;;;;;;5095545;28;20388;-53
2022/03/16 06:39:57;;;;;;;2.70;2.50;;;;;;;;;;5093401;28;20259;-53
2022/03/16 06:42:26;;;;;;;2.45;2.25;;;;;;;;;;5094700;28;20219;-53
2022/03/16 06:44:53;;;;;;;2.80;2.60;;;;;;;;;;5093265;28;20287;-53
2022/03/16 06:47:20;;;;;;;2.83;2.63;;;;;;;;;;5092827;28;20223;-53
2022/03/16 06:49:48;;;;;;;2.78;2.58;;;;;;;;;;5094591;28;20603;-53
2022/03/16 06:52:16;;;;;;;2.85;2.65;;;;;;;;;;5094762;28;20199;-53
2022/03/16 06:54:43;;;;;;;2.85;2.55;;;;;;;;;;5094545;28;20274;-53
2022/03/16 06:57:11;;;;;;;2.70;2.50;;;;;;;;;;5094761;28;20599;-53
2022/03/16 06:59:42;;;;;;;2.85;2.58;;;;;;;;;;5094647;28;20475;-53
2022/03/16 07:02:10;;;;;;;2.90;2.70;;;;;;;;;;5094720;28;20199;-53
2022/03/16 07:04:37;;;;;;;3.03;2.83;;;;;;;;;;5094116;28;20522;-53
2022/03/16 07:07:05;;;;;;;3.15;2.85;;;;;;;;;;5094879;28;20211;-53
2022/03/16 07:09:32;;;;;;;2.78;2.58;;;;;;;;;;5094112;28;20199;-53
2022/03/16 07:12:00;;;;;;;2.90;2.60;;;;;;;;;;5093251;28;20653;-53
2022/03/16 07:14:34;;;;;;;3.17;2.92;;;;;;;;;;5094319;28;20196;-53
2022/03/16 07:17:04;;;;;;;2.83;2.60;;;;;;;;;;5094031;28;20218;-53
2022/03/16 07:19:31;;;;;;;2.90;2.70;;;;;;;;;;5094997;28;20298;-53
2022/03/16 07:22:00;;;;;;;3.45;3.15;;;;;;;;;;5093346;28;20214;-53
2022/03/16 07:24:27;;;;;;;2.85;2.65;;;;;;;;;;5092745;28;20199;-53
2022/03/16 07:26:55;;;;;;;2.85;2.65;;;;;;;;;;5093063;28;20533;-53
2022/03/16 07:29:23;;;;;;;3.28;2.97;;;;;;;;;;5094163;28;20544;-53
2022/03/16 07:31:50;;;;;;;2.95;2.75;;;;;;;;;;5093183;28;20200;-53
2022/03/16 07:34:19;;;;;;;3.13;2.92;;;;;;;;;;5093551;28;20325;-53
2022/03/16 07:36:47;;;;;;;2.95;2.75;;;;;;;;;;5094024;28;20204;-53
2022/03/16 07:39:14;;;;;;;3.20;2.90;;;;;;;;;;5093829;28;20200;-53
2022/03/16 07:41:41;;;;;;;3.30;3.00;;;;;;;;;;5092542;28;20210;-53
2022/03/16 07:44:09;;;;;;;3.55;3.25;;;;;;;;;;5092401;28;20199;-53
2022/03/16 07:46:36;;;;;;;3.90;3.20;;;;;;;;;;5093024;28;20490;-53
2022/03/16 07:49:04;;;;;;;3.35;3.05;;;;;;;;;;5092188;28;20216;-53
2022/03/16 07:51:32;;;;;;;3.28;2.97;;;;;;;;;;5091920;28;20203;-53
2022/03/16 07:54:00;;;;;;;3.08;2.78;;;;;;;;;;5091835;28;20202;-53
2022/03/16 07:56:28;;;;;;;3.50;3.20;;;;;;;;;;5091171;28;20218;-53
2022/03/16 07:58:58;;;;;;;3.70;3.40;;;;;;;;;;5091894;28;20207;-53
2022/03/16 08:01:26;;;;;;;3.40;3.10;;;;;;;;;;5093201;28;20629;-53
2022/03/16 08:03:53;;;;;;;3.50;3.20;;;;;;;;;;5092920;28;20208;-53
2022/03/16 08:06:20;;;;;;;3.40;3.10;;;;;;;;;;5092108;28;20214;-53
2022/03/16 08:08:49;;;;;;;3.47;3.17;;;;;;;;;;5092654;28;20227;-53
2022/03/16 08:11:17;;;;;;;3.80;3.40;;;;;;;;;;5091087;28;20195;-53
2022/03/16 08:13:45;;;;;;;3.80;3.40;;;;;;;;;;5092666;28;20222;-51
2022/03/16 08:16:12;;;;;;;3.72;3.42;;;;;;;;;;5092891;28;20352;-51
2022/03/16 08:18:39;;;;;;;3.47;3.17;;;;;;;;;;5092500;28;20386;-53
2022/03/16 08:21:07;;;;;;;3.80;3.50;;;;;;;;;;5092727;28;20207;-53
2022/03/16 08:23:34;;;;;;;3.58;3.28;;;;;;;;;;5092306;28;20577;-53
2022/03/16 08:26:03;;;;;;;4.18;3.78;;;;;;;;;;5092786;28;20310;-53
2022/03/16 08:28:30;;;;;;;3.70;3.40;;;;;;;;;;5093175;28;20232;-53
2022/03/16 08:30:58;;;;;;;3.75;3.47;;;;;;;;;;5092843;28;20299;-53
2022/03/16 08:33:26;;;;;;;4.25;3.38;;;;;;;;;;5093169;28;20286;-53
2022/03/16 08:35:53;;;;;;;3.85;3.55;;;;;;;;;;5092590;28;20491;-53
2022/03/16 08:38:21;;;;;;;4.43;4.00;;;;;;;;;;5093422;28;20214;-53
2022/03/16 08:40:49;;;;;;;3.88;3.58;;;;;;;;;;5092012;28;20204;-53
2022/03/16 08:43:17;;;;;;;4.45;4.00;;;;;;;;;;5092762;28;20203;-53
2022/03/16 08:45:45;;;;;;;4.00;3.60;;;;;;;;;;5091811;28;20253;-53
2022/03/16 08:48:14;;;;;;;4.03;3.70;;;;;;;;;;5092659;28;20269;-53
2022/03/16 08:50:42;;;;;;;4.40;4.00;;;;;;;;;;5090561;28;20530;-53
2022/03/16 08:53:09;;;;;;;4.07;3.55;;;;;;;;;;5092637;28;20494;-53
2022/03/16 08:55:37;;;;;;;4.47;4.07;;;;;;;;;;5092356;28;20290;-53
2022/03/16 08:58:05;;;;;;;4.10;3.70;;;;;;;;;;5093237;28;20211;-53
2022/03/16 09:00:34;;;;;;;4.32;3.92;;;;;;;;;;5092607;28;20306;-53
2022/03/16 09:03:02;;;;;;;4.70;4.30;;;;;;;;;;5091673;28;20295;-53
2022/03/16 09:05:29;;;;;;;4.07;3.78;;;;;;;;;;5092424;28;20261;-53
2022/03/16 09:07:57;;;;;;;4.53;4.13;;;;;;;;;;5093359;28;20565;-53
2022/03/16 09:10:25;;;;;;;4.50;4.10;;;;;;;;;;5092477;28;20203;-53
2022/03/16 09:12:52;;;;;;;4.28;3.92;;;;;;;;;;5092965;28;20200;-53
2022/03/16 09:15:20;;;;;;;5.20;4.50;;;;;;;;;;5093314;28;20271;-53
2022/03/16 09:17:49;;;;;;;4.38;3.97;;;;;;;;;;5093107;28;20207;-53
2022/03/16 09:20:16;;;;;;;4.50;4.10;;;;;;;;;;5092757;28;20482;-53
2022/03/16 09:22:44;;;;;;;4.38;3.95;;;;;;;;;;5092321;28;20296;-53
2022/03/16 09:25:12;;;;;;;4.80;4.40;;;;;;;;;;5091798;28;20195;-53
2022/03/16 09:27:39;;;;;;;4.75;4.30;;;;;;;;;;5092304;28;20265;-53
2022/03/16 09:30:08;;;;;;;4.30;3.90;;;;;;;;;;5093005;28;20294;-53
2022/03/16 09:32:37;;;;;;;4.65;4.25;;;;;;;;;;5092218;28;20498;-53
2022/03/16 09:35:07;;;;;;;4.15;3.80;;;;;;;;;;5091135;28;20208;-53
2022/03/16 09:37:34;;;;;;;4.57;4.18;;;;;;;;;;5091347;28;20192;-53
2022/03/16 09:40:02;;;;;;;4.85;4.45;;;;;;;;;;5091453;28;20301;-53
2022/03/16 09:42:30;;;;;;;4.72;4.32;;;;;;;;;;5090214;28;20204;-53
2022/03/16 09:44:59;;;;;;;5.00;4.53;;;;;;;;;;5090483;28;20463;-53
2022/03/16 09:47:27;;;;;;;4.53;4.13;;;;;;;;;;5089738;28;20228;-53
2022/03/16 09:49:55;;;;;;;4.60;4.20;;;;;;;;;;5091982;28;20224;-53
2022/03/16 09:52:26;;;;;;;5.00;4.60;;;;;;;;;;5091908;28;20294;-53
2022/03/16 09:54:54;;;;;;;4.68;4.22;;;;;;;;;;5089344;28;20277;-53
2022/03/16 09:57:22;;;;;;;4.70;4.22;;;;;;;;;;5089408;28;20208;-53
2022/03/16 09:59:51;;;;;;;4.97;4.38;;;;;;;;;;5090621;28;20583;-53
2022/03/16 10:02:21;;;;;;;4.85;4.45;;;;;;;;;;5090120;28;20207;-53
2022/03/16 10:04:49;;;;;;;4.85;4.35;;;;;;;;;;5089957;28;20235;-53
2022/03/16 10:07:16;;;;;;;4.78;4.35;;;;;;;;;;5090325;28;20200;-53
2022/03/16 10:15:17;;;;;;;4.70;4.30;;;;;;;;;;5090838;28;20612;-53
2022/03/16 10:17:47;;;;;;;4.72;4.32;;;;;;;;;;5093449;28;21064;-53
2022/03/16 10:20:22;;;;;;;6.15;5.65;;;;;;;;;;5093581;28;20200;-53
2022/03/16 10:22:56;;;;;;;21.38;19.08;;;;;;;;;;5094137;28;20531;-53
2022/03/16 10:25:25;;;;;;;52.00;44.67;;;;;;;;;;5092996;28;20195;-53
2022/03/16 10:27:53;;;;;;;105.55;93.63;;;;;;;;;;5093506;28;20438;-53
2022/03/16 10:30:21;;;;;;;103.13;88.90;;;;;;;;;;5093188;28;20224;-53
2022/03/16 10:32:55;;;;;;;89.45;77.15;;;;;;;;;;5093372;28;20202;-53
2022/03/16 10:35:23;;;;;;;114.82;102.43;;;;;;;;;;5093003;28;20204;-53
2022/03/16 10:37:51;;;;;;;116.07;103.35;;;;;;;;;;5095566;28;20211;-53
2022/03/16 10:40:23;;;;;;;110.35;98.22;;;;;;;;;;5095490;28;20200;-53
2022/03/16 10:48:23;;;;;;;94.43;82.88;;;;;;;;;;5093832;28;20194;-53
2022/03/16 10:50:51;;;;;;;90.93;79.18;;;;;;;;;;5092794;28;20211;-53
2022/03/16 10:53:21;;;;;;;86.65;75.68;;;;;;;;;;5094241;28;20483;-53
2022/03/16 10:55:50;;;;;;;85.47;74.90;;;;;;;;;;5093362;28;20203;-53
2022/03/16 10:58:20;;;;;;;80.78;71.93;;;;;;;;;;5093450;28;20212;-53
2022/03/16 11:00:48;;;;;;;79.10;68.97;;;;;;;;;;5092824;28;20199;-53
2022/03/16 11:03:16;;;;;;;76.53;66.90;;;;;;;;;;5092977;28;20605;-53
2022/03/16 11:05:44;;;;;;;72.85;64.85;;;;;;;;;;5093354;28;20595;-53
2022/03/16 11:08:12;;;;;;;72.07;64.22;;;;;;;;;;5093768;28;20482;-53
2022/03/16 11:10:40;;;;;;;70.50;62.83;;;;;;;;;;5093632;28;20202;-53
2022/03/16 11:15:55;;;;;;;65.30;58.08;;;;;;;;;;5073534;28;20274;-53
2022/03/16 11:18:24;;;;;;;63.95;57.13;;;;;;;;;;5073183;28;20214;-53
2022/03/16 11:20:52;;;;;;;61.92;55.25;;;;;;;;;;5072889;28;20205;-53
2022/03/16 11:26:13;;;;;;;57.38;51.08;;;;;;;;;;5091813;28;20195;-54
2022/03/16 11:28:50;;;;;;;57.05;50.95;;;;;;;;;;5090890;28;20310;-53
2022/03/16 11:31:25;;;;;;;53.45;47.90;;;;;;;;;;5092878;28;20204;-53
2022/03/16 11:33:53;;;;;;;53.38;47.58;;;;;;;;;;5091240;28;20203;-53
2022/03/16 11:36:30;;;;;;;51.60;45.95;;;;;;;;;;5092838;28;20207;-53
2022/03/16 11:38:59;;;;;;;51.42;46.03;;;;;;;;;;5092271;28;20265;-53
2022/03/16 11:41:27;;;;;;;50.35;44.95;;;;;;;;;;5091692;28;20605;-53
2022/03/16 11:44:03;;;;;;;49.80;44.63;;;;;;;;;;5091029;28;20203;-53
2022/03/16 11:46:33;;;;;;;44.83;40.10;;;;;;;;;;5090041;28;20259;-53
2022/03/16 11:49:03;;;;;;;46.70;41.83;;;;;;;;;;5090341;28;20224;-53
2022/03/16 11:51:32;;;;;;;43.42;38.90;;;;;;;;;;5091372;28;20250;-53
2022/03/16 11:54:09;;;;;;;43.90;39.22;;;;;;;;;;5089809;28;20221;-53
2022/03/16 11:56:53;;;;;;;41.80;37.40;;;;;;;;;;5090927;28;20219;-53
2022/03/16 11:59:32;;;;;;;42.15;37.75;;;;;;;;;;5089512;28;20227;-53
2022/03/16 12:02:09;;;;;;;40.47;36.25;;;;;;;;;;5089624;28;20210;-53
2022/03/16 12:04:38;;;;;;;39.53;35.42;;;;;;;;;;5092074;28;20199;-53
2022/03/16 12:07:07;;;;;;;38.75;34.75;;;;;;;;;;5093131;28;20242;-53
2022/03/16 12:09:38;;;;;;;35.20;31.58;;;;;;;;;;5092076;28;20230;-54
2022/03/16 12:14:58;;;;;;;34.72;31.10;;;;;;;;;;5090747;28;20470;-53
2022/03/16 12:17:27;;;;;;;34.38;30.85;;;;;;;;;;5091808;28;20215;-53
2022/03/16 12:20:15;;;;;;;33.17;29.58;;;;;;;;;;5091950;28;20302;-53
2022/03/16 12:22:45;;;;;;;32.70;29.30;;;;;;;;;;5091254;28;20204;-54
2022/03/16 12:25:29;;;;;;;31.35;28.05;;;;;;;;;;5090178;28;20210;-53
2022/03/16 12:30:43;;;;;;;30.10;26.92;;;;;;;;;;5091414;28;20637;-53
2022/03/16 12:33:13;;;;;;;28.98;25.98;;;;;;;;;;5090961;28;20298;-53
2022/03/16 12:35:40;;;;;;;27.95;25.15;;;;;;;;;;5090978;28;20284;-53
2022/03/16 12:38:10;;;;;;;27.73;24.90;;;;;;;;;;5091106;28;20242;-53
2022/03/16 12:42:31;;;;;;;27.35;24.48;;;;;;;;;;5090541;28;20203;-53
2022/03/16 12:43:27;;;;;;;25.73;23.10;;;;;;;;;;5090319;28;20389;-53
2022/03/16 12:46:00;;;;;;;25.90;23.30;;;;;;;;;;5089704;28;20637;-53
2022/03/16 12:48:33;;;;;;;25.27;22.73;;;;;;;;;;5089198;28;20207;-53
2022/03/16 12:51:00;;;;;;;24.67;22.17;;;;;;;;;;5089910;28;20465;-53
2022/03/16 12:53:44;;;;;;;23.67;21.27;;;;;;;;;;5089625;28;20196;-53
2022/03/16 12:56:12;;;;;;;24.88;22.38;;;;;;;;;;5069529;28;20214;-53
2022/03/16 12:58:42;;;;;;;23.30;20.98;;;;;;;;;;5070290;28;20413;-53
2022/03/16 13:01:17;;;;;;;22.88;20.52;;;;;;;;;;5069854;28;20457;-53
2022/03/16 13:03:46;;;;;;;22.45;20.17;;;;;;;;;;5071710;28;20226;-53
2022/03/16 13:06:16;;;;;;;22.98;20.67;;;;;;;;;;5090379;28;20210;-53
2022/03/16 13:08:44;;;;;;;21.20;19.00;;;;;;;;;;5089918;28;20199;-53
2022/03/16 13:11:18;;;;;;;21.10;19.00;;;;;;;;;;5090742;28;20231;-53
2022/03/16 13:13:47;;;;;;;21.02;18.90;;;;;;;;;;5090868;28;20298;-53
2022/03/16 13:16:29;;;;;;;20.88;18.75;;;;;;;;;;5089476;28;20613;-53
2022/03/16 13:18:58;;;;;;;19.75;17.75;;;;;;;;;;5089100;28;20241;-54
2022/03/16 13:21:26;;;;;;;19.05;17.08;;;;;;;;;;5089649;28;20203;-54
2022/03/16 13:24:03;;;;;;;19.02;17.13;;;;;;;;;;5090284;28;20212;-53
2022/03/16 13:26:31;;;;;;;19.13;17.13;;;;;;;;;;5089999;28;20309;-53
2022/03/16 13:28:59;;;;;;;18.17;16.27;;;;;;;;;;5089496;28;20601;-53
2022/03/16 13:31:28;;;;;;;17.70;15.90;;;;;;;;;;5089259;28;20211;-53
2022/03/16 13:33:55;;;;;;;17.52;15.70;;;;;;;;;;5089172;28;20208;-53
2022/03/16 13:36:34;;;;;;;17.30;15.50;;;;;;;;;;5090529;28;20195;-53
2022/03/16 13:39:04;;;;;;;17.67;15.88;;;;;;;;;;5087615;28;20449;-53
2022/03/16 13:41:31;;;;;;;16.98;15.20;;;;;;;;;;5068792;28;20200;-53
2022/03/16 13:44:06;;;;;;;16.00;14.35;;;;;;;;;;5073353;28;20206;-53
2022/03/16 13:46:40;;;;;;;16.10;14.57;;;;;;;;;;5089884;28;20329;-53
2022/03/16 13:49:15;;;;;;;16.20;14.50;;;;;;;;;;5087403;28;20208;-53
2022/03/16 13:52:02;;;;;;;15.02;13.52;;;;;;;;;;5092976;28;20270;-53
2022/03/16 13:54:31;;;;;;;15.38;13.88;;;;;;;;;;5092456;28;20369;-53
2022/03/16 13:57:07;;;;;;;15.20;13.80;;;;;;;;;;5091714;28;20323;-53
2022/03/16 13:59:35;;;;;;;14.50;13.00;;;;;;;;;;5092131;28;20196;-54
2022/03/16 14:02:13;;;;;;;14.30;12.90;;;;;;;;;;5092967;28;20225;-54
2022/03/16 14:04:42;;;;;;;13.23;11.93;;;;;;;;;;5093265;28;20575;-53
2022/03/16 14:07:19;;;;;;;13.57;12.18;;;;;;;;;;5093010;28;20359;-53
2022/03/16 14:09:48;;;;;;;13.07;11.77;;;;;;;;;;5091968;28;20235;-53
2022/03/16 14:12:15;;;;;;;13.48;12.10;;;;;;;;;;5092317;28;21072;-53
2022/03/16 14:14:45;;;;;;;12.68;11.38;;;;;;;;;;5092909;28;20298;-53
2022/03/16 14:17:13;;;;;;;12.15;10.95;;;;;;;;;;5091981;28;20346;-53
2022/03/16 14:19:43;;;;;;;12.45;11.25;;;;;;;;;;5093088;28;20200;-54
2022/03/16 14:22:13;;;;;;;13.00;11.55;;;;;;;;;;5091974;28;20212;-54
2022/03/16 14:24:41;;;;;;;13.38;12.00;;;;;;;;;;5093931;28;20207;-53
2022/03/16 14:27:22;;;;;;;12.25;11.10;;;;;;;;;;5092757;28;20200;-54
2022/03/16 14:29:51;;;;;;;12.02;10.82;;;;;;;;;;5090115;28;20237;-53
2022/03/16 14:32:20;;;;;;;11.18;10.07;;;;;;;;;;5092243;28;20210;-53
2022/03/16 14:34:48;;;;;;;11.30;10.30;;;;;;;;;;5091931;28;20203;-53
2022/03/16 14:37:15;;;;;;;11.05;10.02;;;;;;;;;;5092377;28;20465;-53
2022/03/16 14:39:44;;;;;;;11.13;10.00;;;;;;;;;;5092463;28;20310;-54
2022/03/16 14:42:13;;;;;;;11.43;10.20;;;;;;;;;;5092834;28;20236;-54
2022/03/16 14:44:40;;;;;;;11.23;10.13;;;;;;;;;;5093074;28;20248;-53
2022/03/16 14:47:07;;;;;;;10.32;9.30;;;;;;;;;;5091768;28;20234;-53
2022/03/16 14:49:35;;;;;;;10.25;9.25;;;;;;;;;;5092154;28;20203;-53
2022/03/16 14:52:05;;;;;;;10.20;9.18;;;;;;;;;;5091677;28;20659;-53
2022/03/16 14:54:32;;;;;;;9.73;8.82;;;;;;;;;;5091879;28;20196;-53
2022/03/16 14:57:00;;;;;;;9.68;8.77;;;;;;;;;;5091652;28;20196;-54
2022/03/16 14:59:30;;;;;;;9.07;8.18;;;;;;;;;;5092808;28;20203;-54
2022/03/16 15:01:58;;;;;;;9.68;8.80;;;;;;;;;;5091433;28;20361;-53
2022/03/16 15:04:25;;;;;;;9.32;8.43;;;;;;;;;;5092010;28;20251;-53
2022/03/16 15:06:52;;;;;;;9.40;8.50;;;;;;;;;;5093229;28;20298;-53